createdAt,value
2023-11-08T00:00:03.361Z,6.90
2023-11-08T00:02:30.401Z,6.90
2023-11-08T00:04:57.402Z,6.90
2023-11-08T00:07:24.991Z,6.90
2023-11-08T00:09:51.952Z,6.90
2023-11-08T00:12:19.036Z,6.80
2023-11-08T00:14:46.983Z,6.80
2023-11-08T00:17:17.506Z,6.80
2023-11-08T00:19:44.524Z,6.80
2023-11-08T00:22:13.011Z,6.80
2023-11-08T00:24:40.161Z,6.80
2023-11-08T00:27:07.171Z,6.70
2023-11-08T00:29:34.481Z,6.60
2023-11-08T00:32:01.507Z,6.60
2023-11-08T00:34:28.986Z,6.70
2023-11-08T00:36:57.339Z,6.60
2023-11-08T00:39:24.353Z,6.60
2023-11-08T00:41:51.294Z,6.70
2023-11-08T00:44:18.251Z,6.70
2023-11-08T00:46:45.185Z,6.60
2023-11-08T00:49:14.282Z,6.60
2023-11-08T00:51:41.763Z,6.60
2023-11-08T00:54:08.921Z,6.60
2023-11-08T00:56:36.340Z,6.70
2023-11-08T00:59:03.981Z,6.70
2023-11-08T01:01:36.483Z,6.60
2023-11-08T01:04:08.257Z,6.70
2023-11-08T01:06:35.640Z,6.50
2023-11-08T01:09:02.634Z,6.60
2023-11-08T01:11:29.779Z,6.70
2023-11-08T01:13:56.779Z,6.70
2023-11-08T01:16:23.817Z,6.70
2023-11-08T01:18:50.887Z,6.80
2023-11-08T01:21:17.931Z,6.80
2023-11-08T01:23:45.134Z,6.80
2023-11-08T01:26:12.170Z,6.70
2023-11-08T01:28:39.425Z,6.90
2023-11-08T01:31:06.556Z,6.80
2023-11-08T01:33:33.562Z,6.80
2023-11-08T01:36:01.225Z,6.80
2023-11-08T01:38:28.172Z,6.70
2023-11-08T01:40:55.095Z,6.70
2023-11-08T01:43:30.238Z,6.70
2023-11-08T01:46:09.240Z,6.70
2023-11-08T01:48:36.429Z,6.60
2023-11-08T01:51:05.282Z,6.70
2023-11-08T01:53:37.284Z,6.60
2023-11-08T01:56:05.143Z,6.70
2023-11-08T01:58:35.317Z,6.70
2023-11-08T02:01:08.877Z,6.70
2023-11-08T02:03:41.405Z,6.80
2023-11-08T02:06:12.288Z,6.70
2023-11-08T02:08:40.656Z,6.70
2023-11-08T02:11:09.323Z,6.80
2023-11-08T02:13:36.260Z,6.80
2023-11-08T02:16:04.150Z,6.90
2023-11-08T02:18:32.596Z,6.80
2023-11-08T02:21:03.616Z,6.80
2023-11-08T02:23:33.188Z,6.90
2023-11-08T02:26:00.792Z,7.00
2023-11-08T02:28:28.284Z,6.80
2023-11-08T02:30:56.564Z,6.90
2023-11-08T02:33:28.753Z,6.70
2023-11-08T02:35:56.203Z,6.70
2023-11-08T02:38:23.180Z,6.70
2023-11-08T02:40:50.462Z,6.70
2023-11-08T02:43:17.872Z,6.80
2023-11-08T02:45:45.551Z,6.80
2023-11-08T02:48:12.610Z,6.80
2023-11-08T02:50:40.838Z,6.80
2023-11-08T02:53:08.510Z,6.70
2023-11-08T02:55:38.288Z,6.70
2023-11-08T02:58:05.419Z,6.60
2023-11-08T03:00:32.802Z,6.60
2023-11-08T03:03:00.004Z,6.60
2023-11-08T03:05:27.067Z,6.60
2023-11-08T03:07:55.699Z,6.70
2023-11-08T03:10:23.486Z,6.70
2023-11-08T03:12:52.740Z,6.70
2023-11-08T03:15:22.755Z,6.80
2023-11-08T03:17:52.585Z,6.90
2023-11-08T03:20:20.714Z,7.10
2023-11-08T03:22:48.509Z,7.10
2023-11-08T03:25:18.533Z,7.10
2023-11-08T03:27:47.588Z,7.20
2023-11-08T03:30:17.634Z,7.20
2023-11-08T03:32:45.765Z,7.10
2023-11-08T03:35:16.467Z,7.20
2023-11-08T03:37:44.757Z,7.30
2023-11-08T03:40:13.853Z,7.30
2023-11-08T03:42:47.882Z,7.40
2023-11-08T03:45:14.964Z,7.40
2023-11-08T03:47:42.912Z,7.50
2023-11-08T03:50:10.849Z,7.50
2023-11-08T03:52:38.164Z,7.50
2023-11-08T03:55:06.786Z,7.40
2023-11-08T03:57:33.848Z,7.50
2023-11-08T04:00:01.084Z,7.50
2023-11-08T04:02:28.559Z,7.50
2023-11-08T04:04:55.469Z,7.50
2023-11-08T04:07:22.507Z,7.40
2023-11-08T04:09:50.307Z,7.40
2023-11-08T04:12:17.401Z,7.50
2023-11-08T04:14:44.594Z,7.40
2023-11-08T04:17:11.906Z,7.40
2023-11-08T04:19:39.389Z,7.40
2023-11-08T04:22:07.483Z,7.40
2023-11-08T04:24:35.536Z,7.30
2023-11-08T04:27:05.631Z,7.30
2023-11-08T04:29:32.951Z,7.50
2023-11-08T04:32:00.189Z,7.50
2023-11-08T04:34:27.339Z,7.50
2023-11-08T04:36:54.428Z,7.40
2023-11-08T04:39:23.458Z,7.50
2023-11-08T04:41:52.080Z,7.50
2023-11-08T04:44:20.475Z,7.50
2023-11-08T04:46:47.816Z,7.50
2023-11-08T04:49:15.438Z,7.50
2023-11-08T04:51:43.106Z,7.50
2023-11-08T04:54:10.198Z,7.60
2023-11-08T04:56:37.229Z,7.60
2023-11-08T04:59:04.547Z,7.60
2023-11-08T05:01:31.527Z,7.60
2023-11-08T05:04:01.067Z,7.60
2023-11-08T05:06:28.662Z,7.80
2023-11-08T05:08:55.765Z,7.70
2023-11-08T05:11:22.969Z,7.80
2023-11-08T05:13:50.545Z,7.80
2023-11-08T05:16:27.044Z,7.70
2023-11-08T05:18:54.131Z,8.00
2023-11-08T05:21:22.407Z,7.80
2023-11-08T05:23:49.509Z,7.80
2023-11-08T05:26:17.597Z,7.70
2023-11-08T05:28:44.623Z,7.70
2023-11-08T05:31:12.986Z,7.80
2023-11-08T05:33:43.358Z,7.90
2023-11-08T05:36:10.355Z,8.00
2023-11-08T05:38:40.961Z,8.00
2023-11-08T05:41:07.924Z,8.10
2023-11-08T05:43:34.829Z,8.10
2023-11-08T05:46:01.814Z,8.00
2023-11-08T05:48:28.914Z,8.00
2023-11-08T05:50:55.905Z,8.00
2023-11-08T05:53:23.910Z,8.00
2023-11-08T05:55:51.279Z,8.00
2023-11-08T05:58:18.281Z,8.00
2023-11-08T06:00:45.413Z,8.00
2023-11-08T06:03:12.619Z,8.00
2023-11-08T06:05:40.279Z,8.00
2023-11-08T06:08:07.963Z,7.90
2023-11-08T06:10:35.203Z,8.00
2023-11-08T06:13:06.264Z,7.90
2023-11-08T06:15:33.310Z,8.00
2023-11-08T06:18:01.699Z,8.00
2023-11-08T06:20:28.948Z,8.00
2023-11-08T06:22:55.927Z,8.10
2023-11-08T06:25:23.831Z,8.10
2023-11-08T06:27:50.756Z,8.10
2023-11-08T06:30:18.211Z,8.20
2023-11-08T06:32:45.544Z,8.20
2023-11-08T06:35:13.074Z,8.10
2023-11-08T06:37:41.155Z,8.10
2023-11-08T06:40:10.366Z,8.00
2023-11-08T06:42:39.055Z,8.10
2023-11-08T06:45:07.970Z,8.10
2023-11-08T06:47:35.016Z,8.10
2023-11-08T06:50:03.219Z,8.00
2023-11-08T06:52:30.225Z,8.10
2023-11-08T06:54:57.191Z,8.10
2023-11-08T06:57:24.335Z,8.20
2023-11-08T06:59:51.277Z,8.20
2023-11-08T07:02:18.298Z,8.20
2023-11-08T07:04:45.331Z,8.20
2023-11-08T07:07:12.839Z,8.20
2023-11-08T07:09:40.480Z,8.20
2023-11-08T07:12:09.955Z,8.20
2023-11-08T07:14:37.719Z,8.20
2023-11-08T07:17:06.540Z,8.20
2023-11-08T07:19:34.014Z,8.20
2023-11-08T07:22:00.964Z,8.20
2023-11-08T07:24:28.000Z,8.20
2023-11-08T07:26:54.977Z,8.30
2023-11-08T07:29:23.428Z,8.30
2023-11-08T07:31:53.186Z,8.30
2023-11-08T07:34:23.438Z,8.30
2023-11-08T07:36:52.696Z,8.40
2023-11-08T07:39:27.016Z,8.50
2023-11-08T07:41:55.286Z,8.50
2023-11-08T07:44:22.307Z,8.40
2023-11-08T07:46:49.504Z,8.40
2023-11-08T07:49:17.317Z,8.40
2023-11-08T07:51:44.850Z,8.40
2023-11-08T07:54:12.173Z,8.40
2023-11-08T07:56:39.491Z,8.40
2023-11-08T07:59:06.848Z,8.50
2023-11-08T08:01:33.841Z,8.50
2023-11-08T08:04:01.397Z,8.50
2023-11-08T08:06:28.934Z,8.50
2023-11-08T08:08:58.194Z,8.60
2023-11-08T08:11:25.172Z,8.50
2023-11-08T08:13:53.522Z,8.50
2023-11-08T08:16:23.203Z,8.50
2023-11-08T08:18:50.295Z,8.50
2023-11-08T08:21:19.389Z,8.60
2023-11-08T08:23:51.686Z,8.80
2023-11-08T08:26:25.341Z,9.00
2023-11-08T08:28:52.289Z,9.00
2023-11-08T08:31:20.008Z,9.30
2023-11-08T08:33:47.072Z,9.40
2023-11-08T08:36:14.124Z,9.30
2023-11-08T08:38:41.377Z,9.30
2023-11-08T08:41:08.377Z,9.20
2023-11-08T08:43:36.224Z,9.30
2023-11-08T08:46:03.233Z,9.30
2023-11-08T08:48:30.304Z,9.20
2023-11-08T08:50:57.254Z,9.20
2023-11-08T08:53:24.294Z,9.20
2023-11-08T08:55:51.227Z,9.20
2023-11-08T08:58:18.277Z,9.30
2023-11-08T09:00:45.243Z,9.10
2023-11-08T09:03:12.279Z,9.20
2023-11-08T09:05:39.369Z,9.30
2023-11-08T09:08:06.502Z,9.30
2023-11-08T09:10:33.529Z,9.50
2023-11-08T09:13:00.874Z,9.80
2023-11-08T09:15:31.791Z,9.90
2023-11-08T09:17:58.980Z,10.00
2023-11-08T09:20:26.283Z,9.90
2023-11-08T09:22:53.240Z,9.90
2023-11-08T09:25:20.204Z,10.00
2023-11-08T09:27:47.324Z,10.10
2023-11-08T09:30:14.809Z,10.10
2023-11-08T09:32:42.188Z,10.10
2023-11-08T09:35:10.248Z,10.10
2023-11-08T09:37:37.793Z,10.10
2023-11-08T09:40:10.832Z,10.20
2023-11-08T09:42:39.464Z,10.20
2023-11-08T09:45:10.348Z,10.20
2023-11-08T09:47:39.647Z,10.20
2023-11-08T09:50:10.424Z,10.30
2023-11-08T09:52:40.933Z,10.10
2023-11-08T09:55:11.949Z,10.30
2023-11-08T09:57:40.664Z,10.60
2023-11-08T10:00:09.834Z,10.60
2023-11-08T10:02:38.803Z,10.70
2023-11-08T10:05:06.622Z,10.60
2023-11-08T10:07:34.573Z,10.40
2023-11-08T10:10:04.085Z,10.50
2023-11-08T10:12:33.793Z,10.50
2023-11-08T10:15:08.111Z,10.40
2023-11-08T10:19:30.489Z,10.60
2023-11-08T10:20:36.273Z,10.60
2023-11-08T10:23:04.529Z,10.50
2023-11-08T10:25:31.547Z,10.40
2023-11-08T10:28:07.602Z,10.30
2023-11-08T10:30:41.569Z,10.20
2023-11-08T10:33:14.154Z,10.30
2023-11-08T10:35:44.957Z,10.30
2023-11-08T10:38:12.318Z,10.30
2023-11-08T10:40:39.553Z,10.50
2023-11-08T10:43:07.091Z,10.50
2023-11-08T10:45:34.561Z,10.60
2023-11-08T10:48:02.285Z,10.80
2023-11-08T10:50:30.255Z,10.70
2023-11-08T10:52:58.407Z,10.80
2023-11-08T10:55:27.272Z,10.80
2023-11-08T10:57:59.967Z,10.80
2023-11-08T11:00:28.054Z,10.60
2023-11-08T11:03:02.618Z,10.70
2023-11-08T11:05:32.151Z,10.60
2023-11-08T11:08:01.692Z,10.40
2023-11-08T11:10:30.027Z,10.40
2023-11-08T11:13:08.285Z,10.40
2023-11-08T11:15:58.971Z,10.50
2023-11-08T11:18:35.423Z,10.50
2023-11-08T11:21:16.846Z,10.80
2023-11-08T11:23:44.023Z,10.70
2023-11-08T11:26:14.073Z,10.80
2023-11-08T11:28:53.559Z,10.90
2023-11-08T11:31:37.017Z,11.00
2023-11-08T11:34:22.724Z,11.00
2023-11-08T11:37:06.987Z,11.00
2023-11-08T11:39:36.067Z,11.10
2023-11-08T11:42:26.756Z,11.10
2023-11-08T11:45:01.349Z,10.90
2023-11-08T11:47:30.806Z,11.00
2023-11-08T11:50:02.291Z,11.10
2023-11-08T11:52:31.927Z,11.10
2023-11-08T11:55:00.887Z,11.20
2023-11-08T11:57:30.964Z,11.40
2023-11-08T12:00:01.104Z,11.40
2023-11-08T12:02:30.313Z,11.40
2023-11-08T12:05:00.028Z,11.40
2023-11-08T12:07:27.521Z,11.50
2023-11-08T12:09:55.312Z,11.50
2023-11-08T12:12:30.848Z,11.50
2023-11-08T12:14:58.970Z,11.50
2023-11-08T12:17:28.358Z,11.60
2023-11-08T12:19:56.114Z,11.60
2023-11-08T12:22:23.131Z,11.70
2023-11-08T12:24:50.801Z,11.70
2023-11-08T12:27:18.289Z,11.80
2023-11-08T12:29:46.219Z,11.70
2023-11-08T12:32:13.300Z,11.60
2023-11-08T12:34:41.861Z,11.70
2023-11-08T12:37:11.588Z,11.60
2023-11-08T12:39:38.696Z,11.60
2023-11-08T12:42:15.975Z,11.50
2023-11-08T12:44:47.964Z,11.60
2023-11-08T12:47:15.032Z,11.60
2023-11-08T12:49:43.296Z,11.50
2023-11-08T12:52:13.403Z,11.60
2023-11-08T12:54:40.399Z,11.60
2023-11-08T12:57:07.373Z,11.70
2023-11-08T12:59:43.431Z,11.70
2023-11-08T13:02:12.763Z,11.80
2023-11-08T13:04:43.135Z,11.80
2023-11-08T13:07:10.607Z,12.00
2023-11-08T13:09:41.514Z,12.20
2023-11-08T13:12:09.252Z,12.40
2023-11-08T13:14:36.171Z,12.30
2023-11-08T13:17:04.854Z,12.30
2023-11-08T13:19:31.849Z,12.40
2023-11-08T13:21:59.209Z,12.40
2023-11-08T13:24:26.261Z,12.50
2023-11-08T13:26:54.116Z,12.40
2023-11-08T13:29:22.022Z,12.50
2023-11-08T13:31:50.244Z,12.60
2023-11-08T13:34:17.543Z,12.50
2023-11-08T13:36:44.658Z,12.40
2023-11-08T13:39:11.766Z,12.30
2023-11-08T13:41:38.720Z,12.40
2023-11-08T13:44:06.393Z,12.40
2023-11-08T13:46:33.325Z,12.40
2023-11-08T13:49:01.499Z,12.40
2023-11-08T13:51:28.862Z,12.30
2023-11-08T13:53:55.755Z,12.10
2023-11-08T13:56:24.364Z,12.00
2023-11-08T13:58:51.436Z,11.90
2023-11-08T14:01:18.664Z,11.90
2023-11-08T14:03:46.165Z,11.90
2023-11-08T14:06:13.787Z,12.00
2023-11-08T14:08:41.470Z,12.10
2023-11-08T14:11:09.216Z,12.10
2023-11-08T14:13:36.441Z,12.00
2023-11-08T14:16:04.029Z,12.10
2023-11-08T14:18:31.070Z,12.00
2023-11-08T14:20:58.934Z,11.90
2023-11-08T14:23:25.926Z,12.00
2023-11-08T14:25:52.941Z,12.00
2023-11-08T14:28:20.428Z,11.90
2023-11-08T14:30:47.743Z,11.90
2023-11-08T14:33:16.941Z,11.90
2023-11-08T14:35:44.017Z,11.90
2023-11-08T14:38:11.100Z,11.80
2023-11-08T14:40:39.421Z,11.90
2023-11-08T14:43:06.548Z,11.90
2023-11-08T14:45:33.971Z,11.90
2023-11-08T14:48:01.039Z,11.90
2023-11-08T14:50:28.243Z,12.00
2023-11-08T14:52:55.350Z,11.90
2023-11-08T14:55:22.319Z,11.90
2023-11-08T14:57:49.364Z,11.80
2023-11-08T15:00:17.098Z,11.80
2023-11-08T15:02:44.139Z,11.70
2023-11-08T15:05:11.114Z,11.80
2023-11-08T15:09:42.835Z,11.70
2023-11-08T15:10:25.585Z,11.60
2023-11-08T15:12:56.193Z,11.80
2023-11-08T15:15:24.216Z,11.70
2023-11-08T15:17:51.340Z,11.60
2023-11-08T15:20:18.649Z,11.40
2023-11-08T15:22:46.035Z,11.30
2023-11-08T15:25:13.445Z,11.40
2023-11-08T15:27:40.902Z,11.40
2023-11-08T15:30:09.849Z,11.20
2023-11-08T15:32:40.183Z,11.10
2023-11-08T15:35:09.810Z,11.10
2023-11-08T15:37:38.110Z,11.10
2023-11-08T15:40:05.784Z,11.00
2023-11-08T15:42:33.410Z,10.90
2023-11-08T15:45:00.495Z,10.80
2023-11-08T15:47:27.597Z,10.80
2023-11-08T15:49:54.952Z,10.80
2023-11-08T15:52:22.713Z,10.70
2023-11-08T15:54:49.714Z,10.70
2023-11-08T15:57:16.748Z,10.70
2023-11-08T15:59:43.743Z,10.70
2023-11-08T16:02:10.689Z,10.50
2023-11-08T16:04:38.469Z,10.40
2023-11-08T16:07:05.554Z,10.30
2023-11-08T16:09:33.070Z,10.30
2023-11-08T16:12:00.121Z,10.20
2023-11-08T16:14:27.111Z,10.10
2023-11-08T16:16:54.069Z,10.20
2023-11-08T16:19:21.423Z,10.10
2023-11-08T16:21:50.748Z,10.00
2023-11-08T16:24:18.150Z,10.00
2023-11-08T16:26:45.439Z,9.90
2023-11-08T16:29:49.422Z,9.90
2023-11-08T16:32:33.615Z,10.00
2023-11-08T16:34:50.256Z,9.90
2023-11-08T16:37:17.861Z,9.80
2023-11-08T16:39:45.287Z,9.80
2023-11-08T16:42:12.394Z,9.80
2023-11-08T16:44:40.119Z,9.70
2023-11-08T16:47:07.402Z,9.70
2023-11-08T16:49:35.878Z,9.60
2023-11-08T16:52:02.838Z,9.60
2023-11-08T16:54:29.843Z,9.60
2023-11-08T16:56:59.633Z,9.60
2023-11-08T16:59:26.663Z,9.60
2023-11-08T17:01:53.579Z,9.70
2023-11-08T17:04:21.572Z,9.90
2023-11-08T17:06:51.056Z,9.80
2023-11-08T17:09:18.936Z,9.80
2023-11-08T17:11:46.068Z,9.80
2023-11-08T17:14:13.055Z,9.70
2023-11-08T17:16:43.057Z,9.70
2023-11-08T17:19:11.489Z,9.80
2023-11-08T17:21:38.676Z,9.70
2023-11-08T17:24:07.248Z,9.70
2023-11-08T17:26:34.511Z,9.70
2023-11-08T17:29:01.661Z,9.60
2023-11-08T17:31:30.023Z,9.60
2023-11-08T17:33:57.405Z,9.70
2023-11-08T17:36:24.416Z,9.60
2023-11-08T17:38:52.206Z,9.50
2023-11-08T17:41:19.371Z,9.50
2023-11-08T17:43:47.518Z,9.60
2023-11-08T17:46:15.528Z,9.40
2023-11-08T17:48:42.858Z,9.40
2023-11-08T17:51:09.909Z,9.30
2023-11-08T17:53:36.813Z,9.30
2023-11-08T17:56:06.959Z,9.40
2023-11-08T17:58:34.649Z,9.50
2023-11-08T18:01:01.661Z,9.50
2023-11-08T18:03:28.767Z,9.30
2023-11-08T18:05:58.626Z,9.20
2023-11-08T18:08:25.615Z,9.00
2023-11-08T18:10:52.577Z,9.00
2023-11-08T18:13:19.571Z,8.90
2023-11-08T18:15:48.595Z,8.80
2023-11-08T18:18:17.958Z,8.70
2023-11-08T18:20:45.060Z,8.60
2023-11-08T18:23:12.795Z,8.50
2023-11-08T18:25:41.052Z,8.50
2023-11-08T18:28:08.091Z,8.40
2023-11-08T18:30:35.119Z,8.40
2023-11-08T18:33:02.168Z,8.50
2023-11-08T18:35:29.514Z,8.50
2023-11-08T18:37:56.610Z,8.50
2023-11-08T18:40:24.184Z,8.60
2023-11-08T18:42:51.199Z,8.60
2023-11-08T18:45:18.770Z,8.60
2023-11-08T18:47:45.924Z,8.70
2023-11-08T18:50:14.413Z,8.70
2023-11-08T18:52:41.742Z,8.70
2023-11-08T18:55:09.207Z,8.70
2023-11-08T18:57:37.099Z,8.70
2023-11-08T19:00:10.517Z,8.70
2023-11-08T19:02:38.509Z,8.90
2023-11-08T19:05:06.996Z,8.90
2023-11-08T19:07:35.115Z,8.70
2023-11-08T19:10:04.747Z,8.70
2023-11-08T19:12:33.339Z,8.70
2023-11-08T19:15:00.309Z,8.60
2023-11-08T19:17:27.395Z,8.50
2023-11-08T19:19:54.327Z,8.40
2023-11-08T19:22:21.661Z,8.30
2023-11-08T19:24:49.377Z,8.40
2023-11-08T19:27:16.337Z,8.20
2023-11-08T19:29:43.234Z,8.00
2023-11-08T19:32:12.600Z,7.90
2023-11-08T19:34:40.264Z,8.00
2023-11-08T19:37:07.483Z,7.90
2023-11-08T19:39:34.490Z,7.80
2023-11-08T19:42:02.514Z,7.70
2023-11-08T19:44:30.914Z,7.50
2023-11-08T19:46:57.886Z,7.30
2023-11-08T19:49:25.292Z,7.20
2023-11-08T19:51:52.480Z,7.20
2023-11-08T19:54:20.025Z,7.10
2023-11-08T19:56:47.149Z,7.00
2023-11-08T19:59:14.201Z,7.00
2023-11-08T20:01:41.259Z,7.00
2023-11-08T20:04:08.286Z,6.90
2023-11-08T20:06:35.339Z,6.90
2023-11-08T20:09:02.331Z,6.90
2023-11-08T20:11:31.562Z,6.90
2023-11-08T20:14:01.749Z,6.80
2023-11-08T20:16:28.752Z,6.70
2023-11-08T20:18:55.723Z,6.60
2023-11-08T20:21:25.738Z,6.50
2023-11-08T20:23:53.488Z,6.40
2023-11-08T20:26:21.458Z,6.20
2023-11-08T20:28:50.513Z,6.10
2023-11-08T20:31:17.757Z,6.00
2023-11-08T20:33:45.143Z,6.00
2023-11-08T20:36:12.732Z,5.90
2023-11-08T20:38:41.485Z,5.90
2023-11-08T20:41:14.107Z,6.10
2023-11-08T20:43:42.263Z,6.00
2023-11-08T20:46:14.188Z,5.90
2023-11-08T20:48:41.288Z,5.90
2023-11-08T20:51:08.562Z,5.90
2023-11-08T20:53:35.948Z,6.10
2023-11-08T20:56:02.907Z,6.30
2023-11-08T20:58:29.854Z,6.40
2023-11-08T21:00:59.986Z,6.30
2023-11-08T21:03:29.060Z,6.30
2023-11-08T21:05:59.200Z,6.30
2023-11-08T21:08:26.241Z,6.60
2023-11-08T21:10:53.974Z,6.70
2023-11-08T21:13:21.007Z,6.70
2023-11-08T21:15:49.779Z,6.70
2023-11-08T21:18:19.849Z,6.60
2023-11-08T21:20:48.779Z,6.50
2023-11-08T21:23:15.858Z,6.60
2023-11-08T21:25:43.180Z,6.50
2023-11-08T21:28:10.158Z,6.50
2023-11-08T21:30:37.987Z,6.50
2023-11-08T21:33:05.618Z,6.60
2023-11-08T21:35:32.654Z,6.50
2023-11-08T21:37:59.914Z,6.40
2023-11-08T21:40:27.134Z,6.20
2023-11-08T21:42:55.505Z,6.10
2023-11-08T21:45:22.868Z,5.90
2023-11-08T21:47:49.977Z,5.80
2023-11-08T21:50:17.042Z,5.90
2023-11-08T21:52:43.984Z,5.80
2023-11-08T21:55:13.466Z,5.80
2023-11-08T21:57:40.445Z,5.80
2023-11-08T22:00:08.281Z,5.70
2023-11-08T22:02:35.230Z,5.80
2023-11-08T22:05:02.396Z,6.00
2023-11-08T22:07:29.611Z,6.10
2023-11-08T22:09:57.070Z,6.10
2023-11-08T22:12:24.476Z,6.10
2023-11-08T22:14:52.290Z,6.00
2023-11-08T22:17:19.363Z,6.00
2023-11-08T22:19:46.355Z,6.00
2023-11-08T22:22:13.470Z,5.90
2023-11-08T22:24:40.469Z,6.00
2023-11-08T22:27:07.649Z,5.90
2023-11-08T22:29:34.829Z,6.00
2023-11-08T22:32:01.849Z,6.20
2023-11-08T22:34:28.915Z,6.20
2023-11-08T22:36:55.902Z,6.30
2023-11-08T22:39:22.920Z,6.40
2023-11-08T22:41:49.826Z,6.50
2023-11-08T22:44:16.879Z,6.50
2023-11-08T22:46:43.834Z,6.60
2023-11-08T22:49:11.657Z,6.70
2023-11-08T22:51:38.982Z,6.80
2023-11-08T22:54:07.617Z,6.80
2023-11-08T22:56:35.469Z,6.90
2023-11-08T22:59:02.873Z,6.90
2023-11-08T23:01:33.927Z,7.00
2023-11-08T23:04:02.706Z,7.00
2023-11-08T23:06:31.394Z,7.00
2023-11-08T23:09:01.263Z,7.00
2023-11-08T23:11:31.351Z,7.00
2023-11-08T23:13:58.738Z,7.20
2023-11-08T23:16:26.305Z,7.20
2023-11-08T23:18:56.157Z,7.20
2023-11-08T23:21:23.528Z,7.20
2023-11-08T23:23:52.282Z,7.20
2023-11-08T23:26:20.243Z,7.20
2023-11-08T23:28:47.255Z,7.20
2023-11-08T23:31:14.237Z,7.20
2023-11-08T23:33:41.264Z,7.10
2023-11-08T23:36:13.536Z,7.10
2023-11-08T23:38:43.387Z,7.20
2023-11-08T23:41:10.782Z,7.30
2023-11-08T23:43:37.848Z,7.20
2023-11-08T23:46:05.080Z,7.30
2023-11-08T23:48:32.171Z,7.10
2023-11-08T23:50:59.063Z,7.00
2023-11-08T23:53:26.143Z,6.90
2023-11-08T23:55:53.340Z,7.00
2023-11-08T23:58:21.445Z,7.00
